Terminal Aerodrome Forecast
Issued by NWS Indianapolis, IN

Current Version | Previous Version | Text Only | Print | Product List | Glossary On
Versions: 1 2 3 4 5 6 7 8 9 10 11 12 13 14 15 16 17 18 19 20 21 22 23 24 25 26
927
FTUS43 KIND 270217 AAB
TAFIND
TAF AMD
KIND 270217Z 2702/2806 22010KT P6SM OVC035
     FM270800 23004KT 4SM BR BKN020
     FM271400 14004KT P6SM BKN050
     FM272100 15009KT 4SM -SHRA BKN025=

USA.gov is the U.S. government's official web portal to all federal, state and local government web resources and services.